createdAt,value
2023-03-01T00:01:32.297Z,8.97
2023-03-01T00:04:01.109Z,8.10
2023-03-01T00:06:30.682Z,10.23
2023-03-01T00:08:58.709Z,8.80
2023-03-01T00:11:28.282Z,9.93
2023-03-01T00:13:58.510Z,10.13
2023-03-01T00:16:30.410Z,11.37
2023-03-01T00:18:59.477Z,10.73
2023-03-01T00:21:28.482Z,9.60
2023-03-01T00:23:58.078Z,11.00
2023-03-01T00:26:27.845Z,10.50
2023-03-01T00:28:56.786Z,12.30
2023-03-01T00:31:26.238Z,8.87
2023-03-01T00:33:57.896Z,9.27
2023-03-01T00:36:27.854Z,10.33
2023-03-01T00:38:57.076Z,10.30
2023-03-01T00:41:27.450Z,12.03
2023-03-01T00:43:55.526Z,9.10
2023-03-01T00:46:25.274Z,10.33
2023-03-01T00:48:53.307Z,9.90
2023-03-01T00:51:23.704Z,10.47
2023-03-01T00:53:53.492Z,10.07
2023-03-01T00:56:22.996Z,10.47
2023-03-01T00:58:50.784Z,9.10
2023-03-01T01:01:21.145Z,12.73
2023-03-01T01:03:51.284Z,9.10
2023-03-01T01:06:21.073Z,10.20
2023-03-01T01:08:49.599Z,8.33
2023-03-01T01:11:17.554Z,10.40
2023-03-01T01:13:48.450Z,9.30
2023-03-01T01:16:17.783Z,8.67
2023-03-01T01:18:46.080Z,10.10
2023-03-01T01:21:15.734Z,12.00
2023-03-01T01:23:45.188Z,10.37
2023-03-01T01:26:15.890Z,11.00
2023-03-01T01:28:43.706Z,9.33
2023-03-01T01:31:12.873Z,9.10
2023-03-01T01:33:40.839Z,10.77
2023-03-01T01:36:09.921Z,10.67
2023-03-01T01:38:39.342Z,10.37
2023-03-01T01:41:08.811Z,9.90
2023-03-01T01:43:38.904Z,12.90
2023-03-01T01:46:08.349Z,11.23
2023-03-01T01:48:44.948Z,10.10
2023-03-01T01:51:20.714Z,10.23
2023-03-01T01:53:53.058Z,10.37
2023-03-01T01:56:22.043Z,9.30
2023-03-01T01:58:50.375Z,8.60
2023-03-01T02:01:18.463Z,8.73
2023-03-01T02:03:50.133Z,9.70
2023-03-01T02:06:23.570Z,9.47
2023-03-01T02:08:54.642Z,10.53
2023-03-01T02:11:23.249Z,9.50
2023-03-01T02:13:52.082Z,9.67
2023-03-01T02:16:20.097Z,10.90
2023-03-01T02:18:49.616Z,8.47
2023-03-01T02:21:29.124Z,9.97
2023-03-01T02:23:57.859Z,9.80
2023-03-01T02:26:35.193Z,10.67
2023-03-01T02:29:06.491Z,8.50
2023-03-01T02:31:43.627Z,10.50
2023-03-01T02:34:13.038Z,8.10
2023-03-01T02:36:44.451Z,10.13
2023-03-01T02:39:18.502Z,10.67
2023-03-01T02:41:49.923Z,10.27
2023-03-01T02:44:19.400Z,9.70
2023-03-01T02:46:49.779Z,10.63
2023-03-01T02:49:23.745Z,9.63
2023-03-01T02:52:07.519Z,9.80
2023-03-01T02:54:41.714Z,8.60
2023-03-01T02:57:10.382Z,9.90
2023-03-01T02:59:41.632Z,10.80
2023-03-01T03:02:10.055Z,10.37
2023-03-01T03:04:37.760Z,11.27
2023-03-01T03:07:05.624Z,9.13
2023-03-01T03:09:33.397Z,10.77
2023-03-01T03:12:01.348Z,11.70
2023-03-01T03:14:29.094Z,10.50
2023-03-01T03:16:58.290Z,9.97
2023-03-01T03:19:26.011Z,11.20
2023-03-01T03:21:53.795Z,8.90
2023-03-01T03:24:21.980Z,8.67
2023-03-01T03:26:49.841Z,9.93
2023-03-01T03:29:17.650Z,9.60
2023-03-01T03:31:45.459Z,10.10
2023-03-01T03:34:18.801Z,9.77
2023-03-01T03:36:46.745Z,9.27
2023-03-01T03:39:14.569Z,9.13
2023-03-01T03:41:42.319Z,10.83
2023-03-01T03:44:10.192Z,13.57
2023-03-01T03:46:38.505Z,11.80
2023-03-01T03:49:06.286Z,9.60
2023-03-01T03:51:35.456Z,10.73
2023-03-01T03:54:03.292Z,10.27
2023-03-01T03:56:31.316Z,11.10
2023-03-01T03:58:59.294Z,9.90
2023-03-01T04:01:27.157Z,10.57
2023-03-01T04:03:55.378Z,9.07
2023-03-01T04:06:23.907Z,10.97
2023-03-01T04:08:59.069Z,11.23
2023-03-01T04:11:29.500Z,11.13
2023-03-01T04:13:58.814Z,11.40
2023-03-01T04:16:27.128Z,8.80
2023-03-01T04:18:55.441Z,10.13
2023-03-01T04:21:23.684Z,9.67
2023-03-01T04:23:53.435Z,9.90
2023-03-01T04:26:22.172Z,11.60
2023-03-01T04:28:51.281Z,10.30
2023-03-01T04:31:22.159Z,10.60
2023-03-01T04:33:53.178Z,10.17
2023-03-01T04:36:23.459Z,9.37
2023-03-01T04:38:52.860Z,10.97
2023-03-01T04:41:23.462Z,11.40
2023-03-01T04:43:51.429Z,9.90
2023-03-01T04:46:21.498Z,8.80
2023-03-01T04:48:49.442Z,11.43
2023-03-01T04:51:17.540Z,9.27
2023-03-01T04:53:46.091Z,9.07
2023-03-01T04:56:15.689Z,10.07
2023-03-01T04:58:43.753Z,10.57
2023-03-01T05:01:16.164Z,9.87
2023-03-01T05:03:45.643Z,9.57
2023-03-01T05:06:14.293Z,10.00
2023-03-01T05:08:43.384Z,9.00
2023-03-01T05:11:11.412Z,10.67
2023-03-01T05:13:41.687Z,9.43
2023-03-01T05:16:12.149Z,9.83
2023-03-01T05:18:40.844Z,9.40
2023-03-01T05:21:11.919Z,10.30
2023-03-01T05:23:40.108Z,9.23
2023-03-01T05:26:16.033Z,8.90
2023-03-01T05:28:45.883Z,8.40
2023-03-01T05:31:13.829Z,9.23
2023-03-01T05:33:42.670Z,9.43
2023-03-01T05:36:11.788Z,10.83
2023-03-01T05:38:39.533Z,10.03
2023-03-01T05:41:15.177Z,10.43
2023-03-01T05:43:44.465Z,10.23
2023-03-01T05:46:14.308Z,9.30
2023-03-01T05:48:42.371Z,9.70
2023-03-01T05:51:10.190Z,12.00
2023-03-01T05:53:38.054Z,7.40
2023-03-01T05:56:07.000Z,8.83
2023-03-01T05:58:34.928Z,10.03
2023-03-01T06:01:02.738Z,8.47
2023-03-01T06:03:31.840Z,10.00
2023-03-01T06:05:59.847Z,11.50
2023-03-01T06:08:28.119Z,12.03
2023-03-01T06:10:56.006Z,10.90
2023-03-01T06:13:24.422Z,12.80
2023-03-01T06:15:52.824Z,13.10
2023-03-01T06:18:20.855Z,10.30
2023-03-01T06:20:54.919Z,10.47
2023-03-01T06:23:22.958Z,11.20
2023-03-01T06:25:50.796Z,10.53
2023-03-01T06:28:18.610Z,10.60
2023-03-01T06:30:46.947Z,9.03
2023-03-01T06:33:14.830Z,10.53
2023-03-01T06:35:44.889Z,11.23
2023-03-01T06:38:15.825Z,11.70
2023-03-01T06:40:43.578Z,10.03
2023-03-01T06:43:11.477Z,13.13
2023-03-01T06:45:39.574Z,11.30
2023-03-01T06:48:08.687Z,10.53
2023-03-01T06:50:37.154Z,9.80
2023-03-01T06:53:05.269Z,10.50
2023-03-01T06:55:34.720Z,5.90
2023-03-01T06:58:04.244Z,11.60
2023-03-01T07:00:32.749Z,12.10
2023-03-01T07:03:02.731Z,14.20
2023-03-01T07:05:31.059Z,10.50
2023-03-01T07:07:58.976Z,10.30
2023-03-01T07:10:26.981Z,9.70
2023-03-01T07:12:58.156Z,12.10
2023-03-01T07:15:26.352Z,12.70
2023-03-01T07:17:54.313Z,11.37
2023-03-01T07:20:25.455Z,12.50
2023-03-01T07:22:53.697Z,12.50
2023-03-01T07:25:23.457Z,11.40
2023-03-01T07:27:52.437Z,10.23
2023-03-01T07:30:22.867Z,11.10
2023-03-01T07:32:50.730Z,11.63
2023-03-01T07:35:18.491Z,9.70
2023-03-01T07:37:46.374Z,11.03
2023-03-01T07:40:15.022Z,11.57
2023-03-01T07:42:42.805Z,11.60
2023-03-01T07:45:11.879Z,10.23
2023-03-01T07:47:41.010Z,11.10
2023-03-01T07:50:10.130Z,9.23
2023-03-01T07:52:39.885Z,11.30
2023-03-01T07:55:08.601Z,10.40
2023-03-01T07:57:36.358Z,10.97
2023-03-01T08:00:04.579Z,12.63
2023-03-01T08:02:32.993Z,11.90
2023-03-01T08:05:02.068Z,10.77
2023-03-01T08:07:29.873Z,10.67
2023-03-01T08:09:57.724Z,11.40
2023-03-01T08:12:25.741Z,12.30
2023-03-01T08:14:53.541Z,9.27
2023-03-01T08:17:21.292Z,9.73
2023-03-01T08:19:49.069Z,12.30
2023-03-01T08:22:18.160Z,11.97
2023-03-01T08:24:45.959Z,11.37
2023-03-01T08:27:14.205Z,11.67
2023-03-01T08:29:41.992Z,14.40
2023-03-01T08:32:09.935Z,12.90
2023-03-01T08:34:37.731Z,14.03
2023-03-01T08:37:05.565Z,13.57
2023-03-01T08:39:34.964Z,11.37
2023-03-01T08:42:02.862Z,11.83
2023-03-01T08:44:30.657Z,12.23
2023-03-01T08:46:58.987Z,12.80
2023-03-01T08:49:27.490Z,11.67
2023-03-01T08:51:55.367Z,13.57
2023-03-01T08:54:24.427Z,11.93
2023-03-01T08:56:53.542Z,12.47
2023-03-01T08:59:21.431Z,12.83
2023-03-01T09:01:49.255Z,14.63
2023-03-01T09:04:17.620Z,12.87
2023-03-01T09:06:45.488Z,15.73
2023-03-01T09:09:17.597Z,15.10
2023-03-01T09:11:46.968Z,10.67
2023-03-01T09:14:16.440Z,11.73
2023-03-01T09:16:44.582Z,11.07
2023-03-01T09:19:12.960Z,10.77
2023-03-01T09:21:41.437Z,13.30
2023-03-01T09:24:14.831Z,12.87
2023-03-01T09:26:43.139Z,11.77
2023-03-01T09:29:11.466Z,11.93
2023-03-01T09:31:41.171Z,10.67
2023-03-01T09:34:09.476Z,13.53
2023-03-01T09:36:37.898Z,12.20
2023-03-01T09:39:06.749Z,13.27
2023-03-01T09:41:46.720Z,12.60
2023-03-01T09:44:22.908Z,12.60
2023-03-01T09:46:53.150Z,13.50
2023-03-01T09:49:24.763Z,10.20
2023-03-01T09:52:00.432Z,10.60
2023-03-01T09:54:29.035Z,10.87
2023-03-01T09:57:19.282Z,14.17
2023-03-01T10:00:01.044Z,11.90
2023-03-01T10:02:39.613Z,12.03
2023-03-01T10:05:16.320Z,12.87
2023-03-01T10:07:54.861Z,13.93
2023-03-01T10:10:29.326Z,11.90
2023-03-01T10:12:58.106Z,13.23
2023-03-01T10:15:36.046Z,12.27
2023-03-01T10:18:11.316Z,13.33
2023-03-01T10:20:48.319Z,13.10
2023-03-01T10:23:16.225Z,12.20
2023-03-01T10:25:58.268Z,14.83
2023-03-01T10:28:31.861Z,10.50
2023-03-01T10:31:00.912Z,15.07
2023-03-01T10:33:33.080Z,13.33
2023-03-01T10:36:01.025Z,12.20
2023-03-01T10:38:32.872Z,14.40
2023-03-01T10:41:02.470Z,13.93
2023-03-01T10:43:47.559Z,13.40
2023-03-01T10:46:25.827Z,11.83
2023-03-01T10:49:16.944Z,13.87
2023-03-01T10:51:47.040Z,12.97
2023-03-01T10:54:20.891Z,14.20
2023-03-01T10:56:54.697Z,13.63
2023-03-01T10:59:28.375Z,11.27
2023-03-01T11:02:24.843Z,13.77
2023-03-01T11:05:03.041Z,14.30
2023-03-01T11:07:31.008Z,13.47
2023-03-01T11:09:59.043Z,15.93
2023-03-01T11:12:29.747Z,12.93
2023-03-01T11:14:57.873Z,14.50
2023-03-01T11:17:29.988Z,13.80
2023-03-01T11:20:17.765Z,12.97
2023-03-01T11:22:49.727Z,12.53
2023-03-01T11:25:19.357Z,10.20
2023-03-01T11:27:48.286Z,13.40
2023-03-01T11:30:22.722Z,14.20
2023-03-01T11:32:59.066Z,13.80
2023-03-01T11:35:30.244Z,14.40
2023-03-01T11:38:06.507Z,12.60
2023-03-01T11:40:39.492Z,16.57
2023-03-01T11:43:17.450Z,12.47
2023-03-01T11:45:56.094Z,15.80
2023-03-01T11:48:49.494Z,13.50
2023-03-01T11:51:26.173Z,14.47
2023-03-01T11:54:05.114Z,15.13
2023-03-01T11:56:36.826Z,13.07
2023-03-01T11:59:35.433Z,13.30
2023-03-01T12:02:44.937Z,16.13
2023-03-01T12:05:42.573Z,13.20
2023-03-01T12:08:16.296Z,11.67
2023-03-01T12:10:56.127Z,13.27
2023-03-01T12:13:52.797Z,15.80
2023-03-01T12:16:39.215Z,12.67
2023-03-01T12:19:33.433Z,14.00
2023-03-01T12:22:19.792Z,12.30
2023-03-01T12:25:17.162Z,14.40
2023-03-01T12:28:00.134Z,14.37
2023-03-01T12:30:41.504Z,13.97
2023-03-01T12:33:25.036Z,12.73
2023-03-01T12:36:06.650Z,13.47
2023-03-01T12:38:39.505Z,16.10
2023-03-01T12:41:31.781Z,15.27
2023-03-01T12:44:08.951Z,13.30
2023-03-01T12:46:53.508Z,14.13
2023-03-01T12:49:26.911Z,13.87
2023-03-01T12:51:59.541Z,13.27
2023-03-01T12:54:30.724Z,13.67
2023-03-01T12:57:08.208Z,13.33
2023-03-01T12:59:41.980Z,13.20
2023-03-01T13:02:20.905Z,12.33
2023-03-01T13:05:03.713Z,13.23
2023-03-01T13:07:36.369Z,14.17
2023-03-01T13:10:22.912Z,15.40
2023-03-01T13:13:04.804Z,12.13
2023-03-01T13:15:35.608Z,14.80
2023-03-01T13:18:06.166Z,12.90
2023-03-01T13:20:46.712Z,12.63
2023-03-01T13:23:26.314Z,13.77
2023-03-01T13:26:12.080Z,13.60
2023-03-01T13:29:01.660Z,13.33
2023-03-01T13:32:04.793Z,10.80
2023-03-01T13:34:44.970Z,13.37
2023-03-01T13:37:21.230Z,16.90
2023-03-01T13:39:49.089Z,15.57
2023-03-01T13:42:56.164Z,14.37
2023-03-01T13:45:38.339Z,14.30
2023-03-01T13:48:13.041Z,12.53
2023-03-01T13:50:48.758Z,14.53
2023-03-01T13:53:19.756Z,14.40
2023-03-01T13:55:50.666Z,14.23
2023-03-01T13:58:23.760Z,12.70
2023-03-01T14:01:01.028Z,12.00
2023-03-01T14:03:30.576Z,11.80
2023-03-01T14:06:14.874Z,13.07
2023-03-01T14:08:44.703Z,16.17
2023-03-01T14:11:42.620Z,13.93
2023-03-01T14:14:33.069Z,13.67
2023-03-01T14:17:17.748Z,13.07
2023-03-01T14:19:48.850Z,11.27
2023-03-01T14:22:22.725Z,12.57
2023-03-01T14:24:52.883Z,12.13
2023-03-01T14:27:21.116Z,13.20
2023-03-01T14:29:57.633Z,11.70
2023-03-01T14:32:29.300Z,11.90
2023-03-01T14:34:58.740Z,13.13
2023-03-01T14:37:28.866Z,11.20
2023-03-01T14:39:58.322Z,10.77
2023-03-01T14:42:30.227Z,11.83
2023-03-01T14:44:59.735Z,14.53
2023-03-01T14:47:31.716Z,12.40
2023-03-01T14:50:02.319Z,12.33
2023-03-01T14:52:36.834Z,12.07
2023-03-01T14:55:07.543Z,13.20
2023-03-01T14:57:35.381Z,12.00
2023-03-01T15:00:07.640Z,11.87
2023-03-01T15:02:37.202Z,11.07
2023-03-01T15:05:08.922Z,14.37
2023-03-01T15:07:41.709Z,11.20
2023-03-01T15:10:19.477Z,12.30
2023-03-01T15:12:47.317Z,10.90
2023-03-01T15:15:43.656Z,14.00
2023-03-01T15:18:19.661Z,11.30
2023-03-01T15:20:48.673Z,11.40
2023-03-01T15:23:28.233Z,11.43
2023-03-01T15:25:58.272Z,10.17
2023-03-01T15:28:29.121Z,10.40
2023-03-01T15:31:00.806Z,10.83
2023-03-01T15:33:36.258Z,10.40
2023-03-01T15:36:26.083Z,7.03
2023-03-01T15:38:56.196Z,10.00
2023-03-01T15:41:26.502Z,10.97
2023-03-01T15:43:56.493Z,10.70
2023-03-01T15:46:31.275Z,10.63
2023-03-01T15:49:02.702Z,9.83
2023-03-01T15:51:34.302Z,9.57
2023-03-01T15:54:05.828Z,9.90
2023-03-01T15:56:34.091Z,10.47
2023-03-01T15:59:04.118Z,10.77
2023-03-01T16:01:35.099Z,9.87
2023-03-01T16:04:04.347Z,9.30
2023-03-01T16:06:32.666Z,8.93
2023-03-01T16:09:00.649Z,9.97
2023-03-01T16:11:29.027Z,9.63
2023-03-01T16:13:56.855Z,9.00
2023-03-01T16:16:25.320Z,9.47
2023-03-01T16:18:55.391Z,9.60
2023-03-01T16:21:26.129Z,9.90
2023-03-01T16:23:54.777Z,10.30
2023-03-01T16:26:22.717Z,8.93
2023-03-01T16:28:50.492Z,8.60
2023-03-01T16:31:21.122Z,8.07
2023-03-01T16:33:50.806Z,10.95
2023-03-01T16:36:20.958Z,8.90
2023-03-01T16:38:50.285Z,8.93
2023-03-01T16:41:20.190Z,8.80
2023-03-01T16:43:48.573Z,8.17
2023-03-01T16:46:18.512Z,8.77
2023-03-01T16:48:47.393Z,8.57
2023-03-01T16:51:15.286Z,8.53
2023-03-01T16:53:44.339Z,8.85
2023-03-01T16:56:14.673Z,8.93
2023-03-01T16:58:42.649Z,10.35
2023-03-01T17:01:13.042Z,8.10
2023-03-01T17:03:42.109Z,8.33
2023-03-01T17:06:12.912Z,8.53
2023-03-01T17:08:41.171Z,8.20
2023-03-01T17:11:10.459Z,7.93
2023-03-01T17:13:40.340Z,7.30
2023-03-01T17:16:10.581Z,7.43
2023-03-01T17:18:39.264Z,9.15
2023-03-01T17:21:07.604Z,9.50
2023-03-01T17:23:37.070Z,8.70
2023-03-01T17:26:05.598Z,7.93
2023-03-01T17:28:35.508Z,8.63
2023-03-01T17:31:06.838Z,8.10
2023-03-01T17:33:34.874Z,7.13
2023-03-01T17:36:02.853Z,8.30
2023-03-01T17:38:30.664Z,8.20
2023-03-01T17:41:00.965Z,9.95
2023-03-01T17:43:29.301Z,9.20
2023-03-01T17:45:57.322Z,9.20
2023-03-01T17:48:26.714Z,9.07
2023-03-01T17:50:54.560Z,7.97
2023-03-01T17:53:22.512Z,7.33
2023-03-01T17:55:53.988Z,8.33
2023-03-01T17:58:25.272Z,7.90
2023-03-01T18:00:53.167Z,7.17
2023-03-01T18:03:21.658Z,7.30
2023-03-01T18:05:51.669Z,6.90
2023-03-01T18:08:21.050Z,7.83
2023-03-01T18:10:48.872Z,7.90
2023-03-01T18:13:16.624Z,9.93
2023-03-01T18:15:44.390Z,10.17
2023-03-01T18:18:12.207Z,9.20
2023-03-01T18:20:40.022Z,10.10
2023-03-01T18:23:09.160Z,11.63
2023-03-01T18:25:40.499Z,11.70
2023-03-01T18:28:08.217Z,10.97
2023-03-01T18:30:36.843Z,11.10
2023-03-01T18:33:04.796Z,10.83
2023-03-01T18:35:32.609Z,11.00
2023-03-01T18:38:00.394Z,10.27
2023-03-01T18:40:30.214Z,9.97
2023-03-01T18:42:57.973Z,10.90
2023-03-01T18:45:25.766Z,11.23
2023-03-01T18:47:53.534Z,12.20
2023-03-01T18:50:21.407Z,10.07
2023-03-01T18:52:49.202Z,9.23
2023-03-01T18:55:17.165Z,10.13
2023-03-01T18:57:46.334Z,10.57
2023-03-01T19:00:15.318Z,12.03
2023-03-01T19:02:43.141Z,11.70
2023-03-01T19:05:11.338Z,11.13
2023-03-01T19:07:39.131Z,13.27
2023-03-01T19:10:08.171Z,11.47
2023-03-01T19:12:36.508Z,10.50
2023-03-01T19:15:06.994Z,11.53
2023-03-01T19:17:35.465Z,12.13
2023-03-01T19:20:03.302Z,12.80
2023-03-01T19:22:31.076Z,12.00
2023-03-01T19:24:58.825Z,11.97
2023-03-01T19:27:26.647Z,11.07
2023-03-01T19:29:54.397Z,12.93
2023-03-01T19:32:23.619Z,10.80
2023-03-01T19:34:51.382Z,11.30
2023-03-01T19:37:19.114Z,12.27
2023-03-01T19:39:47.964Z,10.17
2023-03-01T19:42:15.934Z,10.60
2023-03-01T19:44:43.685Z,10.03
2023-03-01T19:47:12.195Z,11.60
2023-03-01T19:49:42.294Z,12.40
2023-03-01T19:52:10.047Z,11.47
2023-03-01T19:54:37.871Z,10.90
2023-03-01T19:57:05.616Z,11.70
2023-03-01T19:59:33.388Z,11.03
2023-03-01T20:02:01.409Z,8.87
2023-03-01T20:04:29.212Z,9.80
2023-03-01T20:06:58.324Z,10.43
2023-03-01T20:09:26.075Z,10.53
2023-03-01T20:11:53.905Z,11.70
2023-03-01T20:14:23.918Z,9.43
2023-03-01T20:16:52.266Z,9.00
2023-03-01T20:19:20.762Z,8.47
2023-03-01T20:21:48.603Z,9.37
2023-03-01T20:24:17.817Z,10.17
2023-03-01T20:26:45.681Z,8.93
2023-03-01T20:29:13.494Z,9.70
2023-03-01T20:31:42.462Z,10.53
2023-03-01T20:34:10.565Z,7.53
2023-03-01T20:36:40.817Z,8.57
2023-03-01T20:39:09.497Z,8.97
2023-03-01T20:41:38.936Z,8.90
2023-03-01T20:44:07.406Z,9.53
2023-03-01T20:46:36.678Z,9.87
2023-03-01T20:49:05.809Z,9.60
2023-03-01T20:51:33.656Z,8.03
2023-03-01T20:54:01.408Z,7.70
2023-03-01T20:56:29.359Z,8.97
2023-03-01T20:58:58.649Z,9.67
2023-03-01T21:01:27.367Z,7.73
2023-03-01T21:03:55.831Z,8.30
2023-03-01T21:06:23.692Z,9.87
2023-03-01T21:08:51.686Z,9.27
2023-03-01T21:11:19.456Z,9.53
2023-03-01T21:13:47.266Z,8.93
2023-03-01T21:16:16.965Z,8.77
2023-03-01T21:18:44.825Z,9.40
2023-03-01T21:21:14.491Z,9.67
2023-03-01T21:23:43.316Z,8.43
2023-03-01T21:26:12.964Z,8.37
2023-03-01T21:28:42.333Z,9.00
2023-03-01T21:31:12.035Z,7.73
2023-03-01T21:33:45.055Z,10.10
2023-03-01T21:36:12.980Z,8.87
2023-03-01T21:38:42.480Z,8.53
2023-03-01T21:41:12.824Z,8.50
2023-03-01T21:43:42.620Z,8.00
2023-03-01T21:46:12.902Z,9.40
2023-03-01T21:48:45.137Z,8.70
2023-03-01T21:51:14.819Z,8.00
2023-03-01T21:53:43.169Z,8.07
2023-03-01T21:56:15.844Z,9.00
2023-03-01T21:58:43.653Z,9.43
2023-03-01T22:01:13.613Z,9.37
2023-03-01T22:03:45.681Z,9.33
2023-03-01T22:06:19.162Z,8.97
2023-03-01T22:08:48.890Z,8.30
2023-03-01T22:11:17.852Z,8.73
2023-03-01T22:13:47.512Z,8.50
2023-03-01T22:16:15.298Z,8.73
2023-03-01T22:18:44.454Z,8.40
2023-03-01T22:21:12.236Z,8.47
2023-03-01T22:23:41.051Z,8.07
2023-03-01T22:26:10.332Z,9.53
2023-03-01T22:28:38.184Z,8.30
2023-03-01T22:31:06.732Z,8.37
2023-03-01T22:33:34.616Z,7.97
2023-03-01T22:36:03.965Z,8.33
2023-03-01T22:38:31.684Z,7.90
2023-03-01T22:40:59.729Z,8.40
2023-03-01T22:43:28.502Z,8.37
2023-03-01T22:45:56.612Z,9.03
2023-03-01T22:48:25.134Z,8.57
2023-03-01T22:50:54.935Z,9.03
2023-03-01T22:53:24.033Z,8.90
2023-03-01T22:55:52.100Z,7.93
2023-03-01T23:00:55.225Z,7.90
2023-03-01T23:03:23.052Z,7.80
2023-03-01T23:05:50.871Z,9.00
2023-03-01T23:08:18.635Z,8.70
2023-03-01T23:10:47.850Z,8.20
2023-03-01T23:13:15.627Z,8.77
2023-03-01T23:15:44.727Z,7.00
2023-03-01T23:18:13.128Z,8.60
2023-03-01T23:20:42.817Z,9.93
2023-03-01T23:23:10.536Z,8.37
2023-03-01T23:25:38.265Z,8.97
2023-03-01T23:28:07.432Z,8.03
2023-03-01T23:30:35.232Z,8.50
2023-03-01T23:33:02.988Z,7.90
2023-03-01T23:35:30.763Z,7.87
2023-03-01T23:37:58.487Z,9.27
2023-03-01T23:40:26.271Z,8.13
2023-03-01T23:42:53.982Z,8.40
2023-03-01T23:45:23.074Z,9.80
2023-03-01T23:47:50.819Z,8.67
2023-03-01T23:50:18.816Z,9.17
2023-03-01T23:52:46.532Z,8.10
2023-03-01T23:55:16.744Z,8.43
2023-03-01T23:57:44.492Z,8.80
